Time;durP1;ratioP1;P1;durP2;ratioP2;P2;SDS_P1;SDS_P2;PMS_P1;PMS_P2;Temp;Humidity;BMP_temperature;BMP_pressure;BME280_temperature;BME280_humidity;BME280_pressure;Samples;Min_cycle;Max_cycle;Signal;HPM_P1;HPM_P2
2023/05/13 00:00:54;;;;;;;0.40;0.40;;;;;;;14.00;35.04;101491.94;5067239;28;20025;-63
2023/05/13 00:03:20;;;;;;;0.30;0.30;;;;;;;14.08;34.96;101505.81;5067541;28;20028;-64
2023/05/13 00:05:45;;;;;;;0.30;0.30;;;;;;;13.99;34.71;101505.88;5067327;28;20025;-64
2023/05/13 00:08:11;;;;;;;4.20;3.80;;;;;;;13.88;35.02;101509.38;5066957;28;20035;-64
2023/05/13 00:10:36;;;;;;;0.30;0.30;;;;;;;13.82;34.96;101509.41;5067101;28;20024;-64
2023/05/13 00:13:02;;;;;;;0.30;0.30;;;;;;;13.78;35.63;101517.28;5065386;28;20029;-63
2023/05/13 00:15:27;;;;;;;0.20;0.20;;;;;;;13.76;35.51;101512.06;5067196;28;20057;-64
2023/05/13 00:17:53;;;;;;;0.40;0.40;;;;;;;13.78;35.53;101517.28;5067035;28;20028;-64
2023/05/13 00:20:18;;;;;;;0.30;0.30;;;;;;;13.83;35.50;101518.13;5066884;28;20017;-64
2023/05/13 00:22:44;;;;;;;0.40;0.40;;;;;;;13.85;35.85;101514.63;5066792;28;20025;-64
2023/05/13 00:25:10;;;;;;;1.70;1.58;;;;;;;13.82;36.52;101517.25;5065471;28;20024;-65
2023/05/13 00:27:35;;;;;;;0.30;0.30;;;;;;;13.77;37.39;101515.53;5066700;28;20025;-64
2023/05/13 00:30:00;;;;;;;0.30;0.30;;;;;;;13.57;38.56;101522.56;5066928;28;20025;-64
2023/05/13 00:32:26;;;;;;;0.55;0.55;;;;;;;13.19;39.20;101526.97;5066121;28;20029;-64
2023/05/13 00:34:51;;;;;;;0.30;0.30;;;;;;;12.95;39.19;101522.63;5066395;28;20048;-64
2023/05/13 00:37:17;;;;;;;0.65;0.65;;;;;;;12.89;39.28;101532.19;5066732;28;20096;-65
2023/05/13 00:39:42;;;;;;;0.30;0.30;;;;;;;12.86;39.46;101529.59;5065120;28;20088;-64
2023/05/13 00:42:11;;;;;;;0.30;0.30;;;;;;;12.80;39.84;101520.88;5066408;28;20025;-64
2023/05/13 00:44:37;;;;;;;0.50;0.50;;;;;;;12.77;39.36;101516.56;5066530;28;20025;-64
2023/05/13 00:47:04;;;;;;;0.40;0.40;;;;;;;12.79;39.29;101519.16;5066626;28;20028;-64
2023/05/13 00:49:31;;;;;;;1.23;1.23;;;;;;;12.79;39.20;101524.38;5066421;28;20021;-64
2023/05/13 00:51:57;;;;;;;0.30;0.30;;;;;;;12.77;38.93;101519.16;5065188;28;20048;-64
2023/05/13 00:54:22;;;;;;;0.30;0.30;;;;;;;12.80;38.76;101518.28;5065983;28;20060;-63
2023/05/13 00:56:48;;;;;;;0.38;0.38;;;;;;;12.82;38.83;101522.66;5066102;28;20052;-63
2023/05/13 00:59:13;;;;;;;0.50;0.50;;;;;;;12.85;39.15;101529.59;5066348;28;20358;-63
2023/05/13 01:02:09;;;;;;;0.50;0.50;;;;;;;12.80;39.17;101524.38;5066015;28;20032;-64
2023/05/13 01:04:56;;;;;;;0.30;0.30;;;;;;;12.74;39.28;101535.66;5066250;28;20056;-64
2023/05/13 01:08:06;;;;;;;0.38;0.38;;;;;;;12.67;39.82;101548.69;5066209;28;20029;-64
2023/05/13 01:10:46;;;;;;;0.38;0.38;;;;;;;12.54;39.42;101550.41;5057384;28;20582;-63
2023/05/13 01:13:16;;;;;;;0.30;0.30;;;;;;;12.50;39.09;101558.22;5065655;28;20088;-63
2023/05/13 01:15:51;;;;;;;0.30;0.30;;;;;;;12.34;39.14;101553.81;5066062;28;20025;-65
2023/05/13 01:18:27;;;;;;;0.30;0.30;;;;;;;12.12;41.39;101551.16;5065770;28;20032;-64
2023/05/13 01:20:53;;;;;;;0.30;0.30;;;;;;;11.99;40.87;101561.50;5065887;28;20031;-64
2023/05/13 01:23:19;;;;;;;0.45;0.45;;;;;;;11.93;39.66;101547.59;5065741;28;20021;-63
2023/05/13 01:25:44;;;;;;;0.50;0.50;;;;;;;11.83;38.93;101544.06;5065827;28;20033;-64
2023/05/13 01:28:10;;;;;;;0.57;0.57;;;;;;;11.79;39.27;101553.56;5065574;28;20120;-64
2023/05/13 01:30:36;;;;;;;0.30;0.30;;;;;;;11.75;39.25;101552.72;5064337;28;20025;-65
2023/05/13 01:33:02;;;;;;;0.30;0.30;;;;;;;11.74;38.93;101563.13;5065239;28;20056;-63
2023/05/13 01:35:28;;;;;;;0.30;0.30;;;;;;;11.67;38.95;101562.19;5065601;28;20445;-63
2023/05/13 01:37:56;;;;;;;0.38;0.38;;;;;;;11.60;38.91;101558.69;5065504;28;20028;-64
2023/05/13 01:40:22;;;;;;;0.38;0.38;;;;;;;11.49;39.74;101557.75;5065278;28;20021;-63
2023/05/13 01:42:47;;;;;;;0.30;0.30;;;;;;;11.46;38.83;101566.41;5064529;28;20059;-64
2023/05/13 01:45:13;;;;;;;0.30;0.30;;;;;;;11.33;39.15;101552.47;5064944;28;20027;-64
2023/05/13 01:47:38;;;;;;;0.30;0.30;;;;;;;11.26;38.87;101558.47;5065428;28;20044;-64
2023/05/13 01:50:04;;;;;;;0.30;0.30;;;;;;;11.22;39.21;101557.59;5065120;28;20021;-64
2023/05/13 01:52:30;;;;;;;0.30;0.30;;;;;;;11.16;39.35;101557.53;5065206;28;20021;-64
2023/05/13 01:54:55;;;;;;;0.80;0.80;;;;;;;11.10;39.60;101557.50;5065217;28;20099;-64
2023/05/13 01:57:21;;;;;;;0.30;0.30;;;;;;;11.06;39.92;101556.59;5063800;28;20435;-64
2023/05/13 01:59:46;;;;;;;1.30;1.20;;;;;;;11.01;40.43;101551.34;5065289;28;20028;-64
2023/05/13 02:02:11;;;;;;;9.50;4.25;;;;;;;11.01;42.61;101553.97;5064955;28;20021;-63
2023/05/13 02:04:37;;;;;;;0.38;0.38;;;;;;;11.00;43.69;101554.81;5064928;28;20021;-65
2023/05/13 02:07:02;;;;;;;0.30;0.30;;;;;;;11.01;44.90;101553.97;5065148;28;20017;-64
2023/05/13 02:09:28;;;;;;;0.38;0.38;;;;;;;10.95;45.69;101547.81;5064826;28;20025;-64
2023/05/13 02:11:53;;;;;;;0.40;0.40;;;;;;;10.97;45.94;101548.72;5064891;28;20024;-63
2023/05/13 02:14:19;;;;;;;0.30;0.30;;;;;;;10.93;45.09;101546.97;5064758;28;20031;-64
2023/05/13 02:16:45;;;;;;;0.30;0.30;;;;;;;10.89;44.61;101551.25;5064674;28;20029;-63
2023/05/13 02:19:10;;;;;;;1.60;1.50;;;;;;;10.84;44.87;101547.75;5064720;28;20059;-63
2023/05/13 02:21:35;;;;;;;0.30;0.30;;;;;;;10.85;45.80;101552.06;5064678;28;20021;-62
2023/05/13 02:24:01;;;;;;;0.40;0.40;;;;;;;10.82;46.20;101542.53;5064468;28;20044;-64
2023/05/13 02:26:26;;;;;;;6.15;1.65;;;;;;;10.80;46.51;101543.38;5064659;28;20032;-63
2023/05/13 02:28:52;;;;;;;0.35;0.35;;;;;;;10.78;47.28;101546.81;5064520;28;20055;-64
2023/05/13 02:31:17;;;;;;;0.30;0.30;;;;;;;10.75;47.68;101545.94;5064414;28;20056;-64
2023/05/13 02:33:43;;;;;;;0.65;0.65;;;;;;;10.72;47.94;101543.31;5062976;28;20116;-64
2023/05/13 02:36:08;;;;;;;0.40;0.40;;;;;;;10.71;48.17;101550.22;5064478;28;20806;-63
2023/05/13 02:38:33;;;;;;;0.43;0.43;;;;;;;10.71;48.68;101544.16;5064455;28;20045;-63
2023/05/13 02:41:00;;;;;;;0.90;0.90;;;;;;;10.70;48.86;101547.63;5064568;28;20028;-64
2023/05/13 02:43:26;;;;;;;0.30;0.30;;;;;;;10.65;49.26;101540.63;5064233;28;20078;-63
2023/05/13 02:45:52;;;;;;;0.40;0.40;;;;;;;10.63;49.74;101531.09;5064656;28;20025;-64
2023/05/13 02:48:18;;;;;;;0.47;0.47;;;;;;;10.71;50.19;101531.16;5064295;28;20084;-64
2023/05/13 02:50:43;;;;;;;0.38;0.38;;;;;;;10.76;50.74;101527.78;5064546;28;20025;-64
2023/05/13 02:53:09;;;;;;;0.50;0.50;;;;;;;10.73;50.83;101524.28;5063207;28;20491;-63
2023/05/13 02:55:34;;;;;;;0.65;0.65;;;;;;;10.72;51.13;101523.38;5066092;28;20029;-63
2023/05/13 02:58:00;;;;;;;0.57;0.57;;;;;;;10.64;51.38;101517.25;5068372;28;20036;-62
2023/05/13 03:00:25;;;;;;;0.50;0.50;;;;;;;10.63;51.65;101521.59;5067123;28;20037;-63
2023/05/13 03:02:51;;;;;;;0.73;0.73;;;;;;;10.45;51.89;101496.28;5068339;28;20043;-63
2023/05/13 03:05:16;;;;;;;0.40;0.40;;;;;;;10.54;52.03;101521.50;5068515;28;20037;-63
2023/05/13 03:07:42;;;;;;;0.30;0.30;;;;;;;10.54;52.15;101526.69;5068540;28;20029;-64
2023/05/13 03:10:08;;;;;;;0.30;0.30;;;;;;;10.46;52.36;101521.44;5068133;28;20036;-65
2023/05/13 03:12:33;;;;;;;0.30;0.30;;;;;;;10.44;52.50;101530.91;5068103;28;20028;-64
2023/05/13 03:14:59;;;;;;;0.60;0.60;;;;;;;10.40;52.54;101527.38;5068426;28;20021;-63
2023/05/13 03:17:24;;;;;;;0.30;0.30;;;;;;;10.45;52.46;101524.00;5068395;28;20028;-64
2023/05/13 03:19:50;;;;;;;0.30;0.30;;;;;;;10.47;52.29;101530.06;5067783;28;20044;-63
2023/05/13 03:22:15;;;;;;;0.30;0.30;;;;;;;10.57;52.50;101531.94;5066804;28;20021;-63
2023/05/13 03:24:42;;;;;;;0.40;0.40;;;;;;;10.53;52.56;101524.94;5067847;28;20029;-64
2023/05/13 03:27:07;;;;;;;0.68;0.68;;;;;;;10.71;52.57;101523.38;5067974;28;20039;-64
2023/05/13 03:29:33;;;;;;;0.68;0.68;;;;;;;10.83;52.62;101528.69;5068169;28;20148;-64
2023/05/13 03:31:58;;;;;;;0.40;0.40;;;;;;;10.99;52.31;101534.88;5067836;28;20017;-63
2023/05/13 03:34:23;;;;;;;0.30;0.30;;;;;;;11.12;52.38;101529.75;5067479;28;20079;-63
2023/05/13 03:36:49;;;;;;;0.30;0.30;;;;;;;11.21;52.23;101523.78;5067854;28;20052;-64
2023/05/13 03:39:15;;;;;;;0.40;0.40;;;;;;;11.35;52.20;101527.34;5067675;28;20076;-63
2023/05/13 03:41:40;;;;;;;0.45;0.45;;;;;;;11.44;52.19;101513.50;5066150;28;20074;-63
2023/05/13 03:44:06;;;;;;;0.30;0.30;;;;;;;11.57;52.06;101518.78;5067878;28;20021;-64
2023/05/13 03:46:32;;;;;;;0.60;0.60;;;;;;;11.71;52.08;101518.88;5067636;28;20079;-62
2023/05/13 03:48:58;;;;;;;0.32;0.32;;;;;;;11.90;51.70;101515.47;5067437;28;20511;-64
2023/05/13 03:51:23;;;;;;;0.30;0.30;;;;;;;12.14;51.39;101523.41;5067550;28;20025;-64
2023/05/13 03:53:49;;;;;;;0.30;0.30;;;;;;;12.36;50.76;101513.88;5067164;28;20029;-63
2023/05/13 03:56:15;;;;;;;0.30;0.30;;;;;;;12.55;50.38;101510.47;5067371;28;20029;-63
2023/05/13 03:58:40;;;;;;;0.30;0.30;;;;;;;12.59;50.27;101513.06;5067383;28;20031;-64
2023/05/13 04:01:07;;;;;;;0.30;0.30;;;;;;;12.72;50.26;101513.06;5067319;28;20469;-64
2023/05/13 04:03:33;;;;;;;0.30;0.30;;;;;;;12.87;50.19;101510.50;5067216;28;20044;-63
2023/05/13 04:05:58;;;;;;;0.30;0.30;;;;;;;13.10;49.84;101520.00;5065345;28;20032;-63
2023/05/13 04:08:24;;;;;;;0.30;0.30;;;;;;;13.38;49.56;101511.28;5065649;28;20024;-61
2023/05/13 04:10:49;;;;;;;0.30;0.30;;;;;;;13.63;49.03;101504.28;5067334;28;20029;-63
2023/05/13 04:13:15;;;;;;;0.38;0.38;;;;;;;13.91;48.37;101513.75;5067159;28;20037;-63
2023/05/13 04:15:40;;;;;;;0.30;0.30;;;;;;;14.02;47.72;101507.59;5067048;28;20067;-64
2023/05/13 04:18:06;;;;;;;0.30;0.30;;;;;;;14.19;47.78;101508.38;5066911;28;20040;-62
2023/05/13 04:20:31;;;;;;;0.30;0.30;;;;;;;14.49;47.31;101516.00;5066917;28;20099;-64
2023/05/13 04:22:56;;;;;;;0.65;0.65;;;;;;;14.63;46.58;101519.41;5066808;28;20028;-64
2023/05/13 04:25:22;;;;;;;0.43;0.43;;;;;;;14.77;46.82;101510.59;5066987;28;20013;-64
2023/05/13 04:27:47;;;;;;;0.30;0.30;;;;;;;15.14;45.86;101508.56;5066756;28;20025;-64
2023/05/13 04:30:13;;;;;;;0.30;0.30;;;;;;;15.35;45.55;101512.72;5065544;28;20024;-64
2023/05/13 04:32:39;;;;;;;0.50;0.50;;;;;;;15.60;45.44;101515.03;5066594;28;20166;-65
2023/05/13 04:35:07;;;;;;;1.55;1.30;;;;;;;16.00;44.88;101516.31;5066663;28;20021;-65
2023/05/13 04:37:33;;;;;;;1.08;0.68;;;;;;;16.32;44.09;101512.38;5066562;28;20021;-64
2023/05/13 04:39:58;;;;;;;1.42;1.33;;;;;;;16.71;43.65;101521.38;5066571;28;20028;-64
2023/05/13 04:42:24;;;;;;;0.20;0.20;;;;;;;16.98;43.55;101521.84;5066450;28;20021;-63
2023/05/13 04:44:49;;;;;;;0.28;0.28;;;;;;;17.37;43.29;101533.41;5066414;28;20112;-63
2023/05/13 04:47:15;;;;;;;2.28;1.50;;;;;;;17.87;43.52;101524.53;5066431;28;20029;-64
2023/05/13 04:49:41;;;;;;;0.65;0.65;;;;;;;18.66;42.62;101528.03;5066344;28;20029;-64
2023/05/13 04:52:07;;;;;;;0.30;0.30;;;;;;;19.05;41.07;101523.56;5065113;28;20488;-63
2023/05/13 04:54:34;;;;;;;0.30;0.30;;;;;;;19.08;39.63;101534.00;5066070;28;20429;-64
2023/05/13 04:57:00;;;;;;;0.63;0.63;;;;;;;19.01;39.88;101538.56;5066199;28;20025;-64
2023/05/13 04:59:26;;;;;;;0.32;0.32;;;;;;;19.30;40.01;101536.97;5066471;28;20021;-63
2023/05/13 05:01:51;;;;;;;0.20;0.20;;;;;;;19.50;40.31;101542.59;5066097;28;20115;-63
2023/05/13 05:04:17;;;;;;;0.32;0.32;;;;;;;20.48;40.65;101531.81;5066089;28;20057;-64
2023/05/13 05:06:42;;;;;;;0.30;0.30;;;;;;;21.39;39.97;101537.56;5066210;28;20013;-64
2023/05/13 05:09:08;;;;;;;0.65;0.43;;;;;;;21.95;38.22;101536.47;5066210;28;20074;-64
2023/05/13 05:11:33;;;;;;;0.40;0.40;;;;;;;22.10;37.89;101541.16;5066165;28;20037;-64
2023/05/13 05:13:59;;;;;;;0.20;0.20;;;;;;;22.51;37.84;101543.06;5065847;28;20059;-63
2023/05/13 05:16:24;;;;;;;0.52;0.52;;;;;;;23.03;38.01;101541.81;5065978;28;20028;-64
2023/05/13 05:18:49;;;;;;;0.20;0.20;;;;;;;23.54;36.23;101545.84;5064948;28;20029;-65
2023/05/13 05:21:17;;;;;;;0.10;0.10;;;;;;;24.17;35.57;101545.66;5065998;28;20096;-64
2023/05/13 05:23:42;;;;;;;0.25;0.25;;;;;;;24.62;34.48;101540.78;5065780;28;20021;-64
2023/05/13 05:26:07;;;;;;;4.95;1.00;;;;;;;25.43;34.70;101544.66;5065833;28;20028;-64
2023/05/13 05:28:33;;;;;;;0.13;0.13;;;;;;;25.79;32.71;101542.78;5065602;28;20461;-63
2023/05/13 05:30:59;;;;;;;0.32;0.32;;;;;;;26.05;32.59;101539.59;5065945;28;20115;-64
2023/05/13 05:33:25;;;;;;;1.45;1.35;;;;;;;26.22;31.50;101526.19;5065041;28;20048;-64
2023/05/13 05:35:51;;;;;;;0.10;0.10;;;;;;;26.67;31.12;101541.41;5065606;28;20031;-65
2023/05/13 05:38:16;;;;;;;0.10;0.10;;;;;;;26.89;29.47;101547.25;5065715;28;20092;-65
2023/05/13 05:40:43;;;;;;;0.10;0.10;;;;;;;27.34;29.30;101544.59;5065423;28;20544;-63
2023/05/13 05:43:12;;;;;;;0.10;0.10;;;;;;;27.99;29.31;101538.81;5065295;28;20017;-62
2023/05/13 05:45:38;;;;;;;0.20;0.20;;;;;;;27.87;28.44;101541.31;5065376;28;20444;-59
2023/05/13 05:48:05;;;;;;;0.10;0.10;;;;;;;28.11;27.97;101538.00;5065446;28;20073;-60
2023/05/13 05:50:31;;;;;;;0.10;0.10;;;;;;;27.82;26.08;101551.44;5065445;28;20045;-59
2023/05/13 05:52:58;;;;;;;0.22;0.22;;;;;;;27.62;25.83;101548.19;5065264;28;20033;-59
2023/05/13 05:55:24;;;;;;;0.10;0.10;;;;;;;27.55;26.18;101536.19;5065039;28;20051;-59
2023/05/13 05:57:49;;;;;;;0.28;0.28;;;;;;;27.58;25.33;101552.88;5065006;28;20021;-59
2023/05/13 06:00:15;;;;;;;0.13;0.13;;;;;;;27.86;24.75;101547.59;5065061;28;20032;-59
2023/05/13 06:02:41;;;;;;;0.20;0.20;;;;;;;27.98;25.23;101542.44;5065100;28;20025;-59
2023/05/13 06:05:07;;;;;;;0.30;0.30;;;;;;;28.24;24.77;101545.22;5065150;28;20357;-59
2023/05/13 06:07:32;;;;;;;0.10;0.10;;;;;;;28.27;24.99;101548.53;5065073;28;20070;-60
2023/05/13 06:09:58;;;;;;;0.20;0.20;;;;;;;28.44;24.55;101557.25;5064951;28;20055;-60
2023/05/13 06:12:23;;;;;;;0.60;0.60;;;;;;;28.15;24.29;101550.19;5064874;28;20025;-59
2023/05/13 06:14:49;;;;;;;0.15;0.15;;;;;;;28.00;24.07;101572.56;5064954;28;20476;-59
2023/05/13 06:17:15;;;;;;;0.20;0.20;;;;;;;28.06;23.61;101564.16;5064918;28;20029;-59
2023/05/13 06:19:43;;;;;;;0.10;0.10;;;;;;;28.08;23.18;101560.41;5065005;28;20021;-59
2023/05/13 06:22:10;;;;;;;0.63;0.63;;;;;;;28.12;23.28;101557.53;5064869;28;20078;-61
2023/05/13 06:24:36;;;;;;;0.10;0.10;;;;;;;28.14;23.18;101563.63;5064578;28;20025;-59
2023/05/13 06:27:02;;;;;;;0.22;0.22;;;;;;;28.20;23.39;101563.25;5064587;28;20031;-61
2023/05/13 06:29:28;;;;;;;0.10;0.10;;;;;;;27.98;22.57;101575.31;5064750;28;20088;-60
2023/05/13 06:31:53;;;;;;;1.33;0.75;;;;;;;27.59;22.58;101573.25;5064658;28;20055;-59
2023/05/13 06:34:19;;;;;;;0.10;0.10;;;;;;;27.58;22.09;101573.34;5064148;28;20049;-60
2023/05/13 06:36:44;;;;;;;0.10;0.10;;;;;;;27.30;22.46;101567.06;5064762;28;20342;-60
2023/05/13 06:39:11;;;;;;;0.10;0.10;;;;;;;27.15;22.75;101566.19;5064410;28;20036;-60
2023/05/13 06:41:37;;;;;;;0.47;0.43;;;;;;;26.96;21.25;101568.13;5064524;28;20040;-60
2023/05/13 06:44:03;;;;;;;0.38;0.38;;;;;;;26.69;21.87;101566.16;5064399;28;20021;-61
2023/05/13 06:46:28;;;;;;;0.13;0.13;;;;;;;26.62;21.96;101562.13;5064577;28;20103;-60
2023/05/13 06:48:55;;;;;;;0.30;0.30;;;;;;;26.77;21.74;101559.50;5064521;28;20044;-60
2023/05/13 06:51:21;;;;;;;0.30;0.30;;;;;;;26.66;21.64;101555.66;5064634;28;20021;-59
2023/05/13 06:53:46;;;;;;;4.13;1.48;;;;;;;26.55;21.76;101558.13;5064387;28;20025;-60
2023/05/13 06:56:12;;;;;;;1.05;1.05;;;;;;;26.76;22.38;101558.66;5064842;28;20350;-59
2023/05/13 06:58:37;;;;;;;0.20;0.20;;;;;;;27.05;21.98;101561.41;5062982;28;20547;-60
2023/05/13 07:01:03;;;;;;;0.10;0.10;;;;;;;27.03;21.49;101570.47;5064381;28;20027;-59
2023/05/13 07:03:28;;;;;;;0.45;0.45;;;;;;;27.24;21.68;101572.78;5064412;28;20017;-60
2023/05/13 07:05:54;;;;;;;0.20;0.20;;;;;;;27.27;21.15;101568.09;5064345;28;20032;-60
2023/05/13 07:08:19;;;;;;;0.10;0.10;;;;;;;27.27;21.56;101569.91;5064278;28;20024;-60
2023/05/13 07:10:45;;;;;;;0.20;0.20;;;;;;;27.73;21.93;101576.03;5064324;28;20031;-60
2023/05/13 07:13:11;;;;;;;0.10;0.10;;;;;;;27.77;21.63;101577.53;5064060;28;20036;-60
2023/05/13 07:15:36;;;;;;;0.20;0.20;;;;;;;27.96;21.17;101580.75;5064171;28;20508;-60
2023/05/13 07:18:02;;;;;;;0.50;0.50;;;;;;;27.92;20.09;101576.59;5064153;28;20029;-60
2023/05/13 07:20:27;;;;;;;0.15;0.15;;;;;;;27.92;20.08;101575.72;5063925;28;20072;-60
2023/05/13 07:22:53;;;;;;;0.22;0.22;;;;;;;28.13;20.39;101564.59;5063770;28;20054;-60
2023/05/13 07:25:18;;;;;;;0.55;0.55;;;;;;;28.49;20.73;101555.16;5063814;28;20013;-59
2023/05/13 07:27:44;;;;;;;0.20;0.20;;;;;;;28.83;20.06;101560.03;5064338;28;20092;-60
2023/05/13 07:30:11;;;;;;;5.63;1.15;;;;;;;29.15;18.99;101559.66;5064234;28;20028;-60
2023/05/13 07:32:37;;;;;;;0.10;0.10;;;;;;;29.22;18.70;101554.72;5064028;28;20029;-59
2023/05/13 07:35:03;;;;;;;0.10;0.10;;;;;;;29.34;18.73;101555.69;5063928;28;20044;-60
2023/05/13 07:37:28;;;;;;;0.10;0.10;;;;;;;29.34;18.54;101555.69;5063974;28;20029;-59
2023/05/13 07:39:54;;;;;;;0.20;0.20;;;;;;;29.60;18.82;101563.72;5063984;28;20377;-61
2023/05/13 07:42:19;;;;;;;0.10;0.10;;;;;;;29.58;19.12;101560.28;5066382;28;20055;-60
2023/05/13 07:44:45;;;;;;;1.85;1.75;;;;;;;29.58;18.42;101559.41;5067411;28;20021;-60
2023/05/13 07:47:11;;;;;;;0.50;0.50;;;;;;;29.37;18.21;101565.28;5067508;28;20037;-60
2023/05/13 07:49:36;;;;;;;0.10;0.10;;;;;;;29.10;17.77;101560.91;5067638;28;20029;-60
2023/05/13 07:52:02;;;;;;;0.10;0.10;;;;;;;29.17;17.94;101557.72;5067549;28;20032;-61
2023/05/13 07:54:27;;;;;;;0.20;0.20;;;;;;;29.36;17.82;101552.91;5067367;28;20029;-60
2023/05/13 07:56:53;;;;;;;0.85;0.73;;;;;;;29.80;17.88;101558.72;5067653;28;20032;-60
2023/05/13 07:59:18;;;;;;;0.47;0.47;;;;;;;30.28;17.46;101562.44;5067217;28;20032;-61
2023/05/13 08:01:44;;;;;;;0.20;0.20;;;;;;;30.16;16.53;101554.28;5067406;28;20483;-59
2023/05/13 08:04:09;;;;;;;0.10;0.10;;;;;;;30.14;16.85;101563.44;5067377;28;20116;-61
2023/05/13 08:06:35;;;;;;;0.10;0.10;;;;;;;30.20;17.16;101565.69;5067333;28;20025;-58
2023/05/13 08:09:00;;;;;;;0.10;0.10;;;;;;;30.19;16.75;101553.28;5067240;28;20093;-60
2023/05/13 08:11:27;;;;;;;0.10;0.10;;;;;;;30.36;17.00;101561.84;5066817;28;20024;-58
2023/05/13 08:13:52;;;;;;;0.25;0.25;;;;;;;30.33;16.27;101552.22;5066991;28;20083;-60
2023/05/13 08:16:18;;;;;;;0.10;0.10;;;;;;;30.07;17.10;101555.00;5067043;28;20028;-60
2023/05/13 08:18:43;;;;;;;0.20;0.20;;;;;;;30.08;16.81;101553.19;5067102;28;20441;-66
2023/05/13 08:21:08;;;;;;;0.30;0.30;;;;;;;30.51;16.43;101554.50;5067075;28;20029;-72
2023/05/13 08:23:35;;;;;;;0.10;0.10;;;;;;;30.75;16.11;101554.41;5065377;28;20028;-65
2023/05/13 08:26:01;;;;;;;1.40;0.65;;;;;;;30.87;15.76;101551.81;5066875;28;20032;-69
2023/05/13 08:28:28;;;;;;;0.15;0.15;;;;;;;30.94;15.45;101545.00;5066887;28;20021;-69
2023/05/13 08:30:53;;;;;;;0.10;0.10;;;;;;;31.11;14.87;101540.13;5067163;28;20060;-63
2023/05/13 08:33:19;;;;;;;0.10;0.10;;;;;;;31.12;14.65;101550.72;5066471;28;20049;-69
2023/05/13 08:35:46;;;;;;;0.20;0.20;;;;;;;30.98;14.84;101559.00;5066878;28;20235;-66
2023/05/13 08:38:11;;;;;;;0.10;0.10;;;;;;;31.13;15.37;101560.50;5066936;28;20021;-65
2023/05/13 08:40:37;;;;;;;0.10;0.10;;;;;;;31.21;14.62;101569.75;5066551;28;20020;-61
2023/05/13 08:43:03;;;;;;;0.10;0.10;;;;;;;30.94;14.29;101563.78;5066341;28;20024;-60
2023/05/13 08:45:31;;;;;;;0.10;0.10;;;;;;;30.75;14.77;101564.31;5066388;28;20052;-60
2023/05/13 08:48:00;;;;;;;0.10;0.10;;;;;;;30.83;15.04;101567.28;5066751;28;20048;-60
2023/05/13 08:50:27;;;;;;;0.10;0.10;;;;;;;31.35;15.01;101561.47;5066481;28;20357;-60
2023/05/13 08:52:54;;;;;;;0.10;0.10;;;;;;;31.77;14.45;101563.56;5066481;28;20031;-60
2023/05/13 08:55:20;;;;;;;0.10;0.10;;;;;;;31.89;14.36;101558.13;5066135;28;20461;-60
2023/05/13 08:57:46;;;;;;;0.20;0.20;;;;;;;32.40;13.80;101556.66;5066129;28;20044;-60
2023/05/13 09:00:13;;;;;;;1.08;1.08;;;;;;;32.37;13.05;101551.53;5066149;28;20025;-60
2023/05/13 09:02:39;;;;;;;0.20;0.20;;;;;;;31.83;13.05;101562.19;5066081;28;20032;-59
2023/05/13 09:05:06;;;;;;;0.65;0.57;;;;;;;31.53;14.24;101558.34;5066207;28;20017;-60
2023/05/13 09:07:32;;;;;;;0.10;0.10;;;;;;;31.83;13.36;101562.19;5066028;28;20029;-60
2023/05/13 09:09:58;;;;;;;3.30;1.55;;;;;;;31.74;13.96;101552.22;5065719;28;20048;-59
2023/05/13 09:12:52;;;;;;;0.52;0.52;;;;;;;31.71;13.94;101557.84;5065721;28;20051;-59
2023/05/13 09:15:22;;;;;;;0.30;0.30;;;;;;;32.06;13.86;101559.50;5066009;28;20028;-59
2023/05/13 09:17:53;;;;;;;3.25;0.77;;;;;;;32.10;13.91;101560.06;5066069;28;20452;-60
2023/05/13 09:20:20;;;;;;;0.10;0.10;;;;;;;32.47;13.50;101550.75;5065631;28;20509;-59
2023/05/13 09:22:55;;;;;;;0.10;0.10;;;;;;;32.55;13.65;101548.31;5065883;28;20025;-60
2023/05/13 09:25:24;;;;;;;0.10;0.10;;;;;;;32.82;13.70;101551.44;5065758;28;20077;-59
2023/05/13 09:27:58;;;;;;;0.10;0.10;;;;;;;32.99;13.18;101545.47;5065790;28;20025;-59
2023/05/13 09:30:26;;;;;;;0.30;0.30;;;;;;;32.87;12.49;101543.84;5065662;28;20032;-60
2023/05/13 09:33:12;;;;;;;0.13;0.13;;;;;;;32.77;13.11;101541.09;5065194;28;20021;-59
2023/05/13 09:35:42;;;;;;;0.10;0.10;;;;;;;32.79;13.13;101540.94;5065470;28;20033;-59
2023/05/13 09:38:30;;;;;;;0.30;0.30;;;;;;;32.91;13.24;101539.06;5065907;28;20036;-59
2023/05/13 09:40:57;;;;;;;0.38;0.38;;;;;;;33.13;13.39;101533.50;5065793;28;20044;-59
2023/05/13 09:43:30;;;;;;;0.05;0.05;;;;;;;33.34;12.64;101538.00;5065337;28;20469;-59
2023/05/13 09:46:00;;;;;;;0.40;0.40;;;;;;;33.16;12.72;101531.56;5065466;28;20093;-60
2023/05/13 09:48:27;;;;;;;0.82;0.75;;;;;;;33.17;12.67;101536.78;5065491;28;20028;-59
2023/05/13 09:50:54;;;;;;;0.10;0.10;;;;;;;33.12;12.96;101539.03;5065463;28;20028;-60
2023/05/13 09:53:20;;;;;;;0.10;0.10;;;;;;;32.82;13.18;101528.09;5065402;28;20484;-59
2023/05/13 09:55:50;;;;;;;0.10;0.10;;;;;;;32.58;13.22;101531.94;5065252;28;20097;-60
2023/05/13 09:58:18;;;;;;;0.20;0.20;;;;;;;32.21;13.30;101529.63;5065442;28;20052;-59
2023/05/13 10:00:45;;;;;;;0.22;0.22;;;;;;;31.95;13.15;101532.66;5065427;28;20132;-59
2023/05/13 10:03:10;;;;;;;0.30;0.30;;;;;;;31.82;12.96;101535.47;5065059;28;20027;-60
2023/05/13 10:05:37;;;;;;;0.10;0.10;;;;;;;31.53;13.31;101536.88;5064767;28;20029;-60
2023/05/13 10:08:04;;;;;;;0.10;0.10;;;;;;;31.38;13.30;101530.91;5065696;28;20025;-60
2023/05/13 10:10:30;;;;;;;0.10;0.10;;;;;;;31.36;13.44;101536.34;5064900;28;20086;-62
2023/05/13 10:13:11;;;;;;;0.22;0.22;;;;;;;31.18;13.58;101527.97;5064971;28;20098;-59
2023/05/13 10:15:46;;;;;;;0.10;0.10;;;;;;;31.64;14.06;101528.81;5064978;28;20033;-59
2023/05/13 10:18:13;;;;;;;0.10;0.10;;;;;;;31.99;13.59;101520.69;5065150;28;20029;-59
2023/05/13 10:20:40;;;;;;;0.10;0.10;;;;;;;31.72;13.78;101517.44;5064791;28;20077;-59
2023/05/13 10:23:06;;;;;;;0.10;0.10;;;;;;;31.50;14.02;101524.53;5065170;28;20032;-60
2023/05/13 10:25:32;;;;;;;0.10;0.10;;;;;;;31.29;13.90;101524.41;5064466;28;20017;-59
2023/05/13 10:27:58;;;;;;;0.17;0.17;;;;;;;31.26;13.89;101519.31;5064722;28;20373;-60
2023/05/13 10:30:26;;;;;;;0.20;0.20;;;;;;;30.84;14.24;101522.56;5065416;28;20020;-59
2023/05/13 10:32:53;;;;;;;0.20;0.20;;;;;;;30.88;14.88;101521.38;5064698;28;20089;-61
2023/05/13 10:35:19;;;;;;;0.22;0.22;;;;;;;31.08;14.81;101524.28;5064922;28;20021;-60
2023/05/13 10:37:53;;;;;;;0.10;0.10;;;;;;;31.17;15.08;101521.72;5065111;28;20021;-61
2023/05/13 10:40:24;;;;;;;0.10;0.10;;;;;;;31.08;15.09;101522.47;5064819;28;20029;-59
2023/05/13 10:43:20;;;;;;;0.10;0.10;;;;;;;30.90;14.66;101520.25;5064879;28;20031;-60
2023/05/13 10:45:50;;;;;;;0.20;0.20;;;;;;;30.52;15.12;101513.31;5062280;28;20032;-60
2023/05/13 10:48:17;;;;;;;0.15;0.15;;;;;;;29.99;15.03;101514.53;5064962;28;20028;-59
2023/05/13 10:51:05;;;;;;;0.15;0.15;;;;;;;29.62;15.49;101516.28;5064842;28;20055;-59
2023/05/13 10:53:36;;;;;;;0.10;0.10;;;;;;;29.29;15.63;101512.38;5064919;28;20029;-60
2023/05/13 10:56:06;;;;;;;0.10;0.10;;;;;;;28.79;16.21;101513.94;5063340;28;20109;-60
2023/05/13 10:58:33;;;;;;;0.13;0.13;;;;;;;28.17;16.59;101499.38;5064645;28;20021;-59
2023/05/13 11:01:36;;;;;;;1.40;0.75;;;;;;;27.21;17.44;101518.69;5064869;28;20252;-60
2023/05/13 11:04:03;;;;;;;0.10;0.10;;;;;;;26.58;17.97;101502.84;5053001;28;20029;-60
2023/05/13 11:06:36;;;;;;;0.20;0.20;;;;;;;26.11;18.55;101505.53;5064478;28;20268;-59
2023/05/13 11:09:11;;;;;;;0.10;0.10;;;;;;;25.93;18.45;101506.56;5064589;28;20021;-59
2023/05/13 11:11:37;;;;;;;0.57;0.57;;;;;;;25.76;18.63;101503.06;5064599;28;20024;-60
2023/05/13 11:14:06;;;;;;;0.22;0.22;;;;;;;25.48;18.89;101512.53;5064277;28;20031;-60
2023/05/13 11:16:32;;;;;;;0.20;0.20;;;;;;;25.19;19.09;101499.84;5066312;28;20084;-59
2023/05/13 11:18:58;;;;;;;0.10;0.10;;;;;;;24.93;19.34;101501.22;5068502;28;20025;-60
2023/05/13 11:21:38;;;;;;;0.10;0.10;;;;;;;24.56;19.69;101502.16;5068375;28;20040;-59
2023/05/13 11:24:05;;;;;;;2.50;0.85;;;;;;;24.31;19.81;101505.19;5068302;28;20013;-60